Rockville, Virginia
Current Conditions -  °F | °C
As of 4:54 PM on Tuesday 21 Oct 2014 (Local Time) from KOFP Reporting Station
Broken Clouds Broken Clouds  
Wind Chill: 68°   Ceiling: 11000
Heat Index: 68°   Visibility: 10mi
Dew Point: 48°   Wind: 3mph
Humidity: 49%   Direction: 210°SSW
Pressure: 29.81"   Gusts: NA
Location:  37.73°N, 77.68°W
Report Text: KOFP 212054Z AUTO 21003KT 10SM BKN110 20/09 A2981 RMK AO2 SLP095 T02000089 56009
Loading
Personal Weather Stations






























Interactive Weather Map
Tropical Storm Tracking
New forecast layout! Learn more

10-Day Weather Forecast

Advertisements
Track Severe Weather on mobile